createdAt,value
2022-08-14T00:00:13.642Z,117945.66
2022-08-14T00:02:42.010Z,117928.88
2022-08-14T00:05:16.434Z,116547.88
2022-08-14T00:07:44.429Z,116529.34
2022-08-14T00:10:52.945Z,117232.97
2022-08-14T00:13:07.083Z,116872.31
2022-08-14T00:15:43.403Z,117210.34
2022-08-14T00:18:30.203Z,114768.47
2022-08-14T00:21:03.386Z,112681.66
2022-08-14T00:23:31.135Z,114420.88
2022-08-14T00:26:06.009Z,112672.22
2022-08-14T00:28:36.738Z,111290.53
2022-08-14T00:31:05.843Z,110937.72
2022-08-14T00:33:50.585Z,112350.25
2022-08-14T00:36:35.039Z,112002.88
2022-08-14T00:39:12.802Z,110260.97
2022-08-14T00:41:40.284Z,108520.97
2022-08-14T00:44:10.384Z,106432.56
2022-08-14T00:46:38.504Z,103985.19
2022-08-14T00:49:08.062Z,98770.88
2022-08-14T00:51:41.116Z,96336.16
2022-08-14T00:54:16.844Z,94957.38
2022-08-14T00:56:51.580Z,93920.44
2022-08-14T00:59:23.959Z,94614.34
2022-08-14T01:01:52.795Z,95651.53
2022-08-14T01:04:51.966Z,96680.94
2022-08-14T01:07:11.827Z,97707.25
2022-08-14T01:09:42.097Z,95649.13
2022-08-14T01:12:11.723Z,99123.38
2022-08-14T01:14:40.821Z,100838.19
2022-08-14T01:17:08.872Z,98408.53
2022-08-14T01:19:54.070Z,97715.44
2022-08-14T01:22:26.630Z,95624.31
2022-08-14T01:24:54.850Z,93211.88
2022-08-14T01:27:24.698Z,92175.66
2022-08-14T01:30:01.275Z,89748.09
2022-08-14T01:32:37.716Z,86974.75
2022-08-14T01:35:20.189Z,84553.00
2022-08-14T01:37:59.933Z,82494.09
2022-08-14T01:40:36.749Z,82494.09
2022-08-14T01:43:15.553Z,82497.53
2022-08-14T01:45:49.164Z,82148.75
2022-08-14T01:48:33.452Z,80782.69
2022-08-14T01:51:05.353Z,81816.47
2022-08-14T01:53:55.410Z,82150.13
2022-08-14T01:56:39.166Z,83182.16
2022-08-14T01:59:09.741Z,83184.25
2022-08-14T02:01:38.435Z,83165.41
2022-08-14T02:04:20.550Z,81441.78
2022-08-14T02:06:58.439Z,80064.09
2022-08-14T02:09:27.883Z,80742.00
2022-08-14T02:11:59.394Z,79366.22
2022-08-14T02:14:31.468Z,78664.66
2022-08-14T02:17:00.137Z,77631.31
2022-08-14T02:19:31.716Z,77291.28
2022-08-14T02:22:03.346Z,76262.91
2022-08-14T02:24:39.593Z,76269.31
2022-08-14T02:28:25.440Z,76958.38
2022-08-14T02:29:59.750Z,79022.69
2022-08-14T02:32:36.364Z,80047.97
2022-08-14T02:35:10.235Z,80046.66
2022-08-14T02:37:47.559Z,79701.75
2022-08-14T02:40:18.369Z,79338.22
2022-08-14T02:42:54.648Z,76935.75
2022-08-14T02:45:24.831Z,75220.25
2022-08-14T02:48:00.690Z,74189.50
2022-08-14T02:50:29.368Z,74193.25
2022-08-14T02:53:02.955Z,72825.53
2022-08-14T02:55:33.011Z,73176.31
2022-08-14T02:58:03.607Z,73173.25
2022-08-14T03:00:39.736Z,72476.66
2022-08-14T03:03:08.318Z,69744.66
2022-08-14T03:05:41.278Z,68040.00
2022-08-14T03:08:11.769Z,67695.94
2022-08-14T03:10:49.025Z,66666.31
2022-08-14T03:13:21.712Z,66320.75
2022-08-14T03:15:56.085Z,65975.31
2022-08-14T03:18:31.083Z,65633.22
2022-08-14T03:21:00.376Z,65961.97
2022-08-14T03:23:27.867Z,65280.72
2022-08-14T03:25:56.789Z,65274.66
2022-08-14T03:28:33.125Z,65607.78
2022-08-14T03:31:01.878Z,64232.19
2022-08-14T03:33:38.246Z,63894.19
2022-08-14T03:37:37.299Z,63552.47
2022-08-14T03:39:12.538Z,62861.16
2022-08-14T03:41:47.766Z,62864.34
2022-08-14T03:45:19.433Z,62869.09
2022-08-14T03:47:03.024Z,62872.28
2022-08-14T03:49:30.959Z,63893.13
2022-08-14T03:52:00.699Z,63896.34
2022-08-14T03:54:28.503Z,63192.63
2022-08-14T03:57:02.430Z,60787.53
2022-08-14T03:59:30.775Z,58065.41
2022-08-14T04:02:02.162Z,57388.75
2022-08-14T04:04:32.140Z,57736.56
2022-08-14T04:07:01.464Z,57733.66
2022-08-14T04:09:29.250Z,57748.28
2022-08-14T04:11:59.864Z,59463.91
2022-08-14T04:14:28.985Z,60150.25
2022-08-14T04:16:56.825Z,60838.34
2022-08-14T04:19:24.619Z,61871.44
2022-08-14T04:22:03.197Z,62228.88
2022-08-14T04:24:37.943Z,64642.56
2022-08-14T04:27:09.649Z,65689.63
2022-08-14T04:29:38.869Z,68095.00
2022-08-14T04:33:02.299Z,70518.06
2022-08-14T04:34:56.070Z,75002.56
2022-08-14T04:37:42.463Z,74649.00
2022-08-14T04:40:28.220Z,75360.03
2022-08-14T04:43:17.269Z,80195.94
2022-08-14T04:45:45.643Z,84347.38
2022-08-14T04:48:38.738Z,88153.00
2022-08-14T04:51:10.873Z,92657.31
2022-08-14T04:53:42.794Z,98207.44
2022-08-14T04:56:30.517Z,100978.41
2022-08-14T04:59:10.666Z,107590.88
2022-08-14T05:01:41.552Z,112466.91
2022-08-14T05:04:14.727Z,112469.72
2022-08-14T05:06:47.195Z,113169.09
2022-08-14T05:09:17.147Z,112858.09
2022-08-14T05:11:45.011Z,128949.94
2022-08-14T05:14:16.620Z,140882.84
2022-08-14T05:17:02.586Z,149384.38
2022-08-14T05:19:32.591Z,150312.50
2022-08-14T05:22:16.701Z,155039.31
2022-08-14T05:24:48.439Z,155076.94
2022-08-14T05:27:19.688Z,155057.50
2022-08-14T05:29:51.866Z,155067.88
2022-08-14T05:32:19.249Z,155100.38
2022-08-14T05:34:47.666Z,155126.31
2022-08-14T05:37:15.641Z,155154.84
2022-08-14T05:39:43.776Z,155187.25
2022-08-14T05:42:22.124Z,155208.03
2022-08-14T05:44:56.271Z,155191.16
2022-08-14T05:47:23.848Z,155211.88
2022-08-14T05:49:51.789Z,155256.00
2022-08-14T05:52:38.696Z,155287.19
2022-08-14T05:55:09.109Z,155258.63
2022-08-14T05:57:47.043Z,155285.88
2022-08-14T06:00:29.069Z,155310.56
2022-08-14T06:02:58.543Z,155326.16
2022-08-14T06:05:28.841Z,155331.38
2022-08-14T06:07:57.363Z,155359.94
2022-08-14T06:10:25.696Z,155375.47
2022-08-14T06:12:57.277Z,155398.84
2022-08-14T06:15:30.345Z,155414.44
2022-08-14T06:17:59.835Z,155420.91
2022-08-14T06:20:28.706Z,155471.53
2022-08-14T06:22:57.676Z,155471.53
2022-08-14T06:25:27.747Z,155487.13
2022-08-14T06:27:55.682Z,155511.81
2022-08-14T06:30:30.279Z,155471.53
2022-08-14T06:33:15.612Z,155505.31
2022-08-14T06:35:43.718Z,155561.19
2022-08-14T06:38:17.335Z,155617.06
2022-08-14T06:40:46.086Z,155643.03
2022-08-14T06:43:15.452Z,155650.81
2022-08-14T06:45:48.315Z,155631.34
2022-08-14T06:48:24.478Z,155618.31
2022-08-14T06:50:53.121Z,155598.84
2022-08-14T06:53:21.745Z,155611.84
2022-08-14T06:55:58.388Z,155648.19
2022-08-14T06:58:31.497Z,155663.78
2022-08-14T07:01:27.096Z,155678.09
2022-08-14T07:04:23.898Z,155682.00
2022-08-14T07:06:52.131Z,155749.59
2022-08-14T07:09:23.574Z,155778.19
2022-08-14T07:11:51.616Z,155814.56
2022-08-14T07:14:19.497Z,155853.53
2022-08-14T07:16:48.212Z,155929.00
2022-08-14T07:19:18.035Z,155995.28
2022-08-14T07:21:49.167Z,156160.50
2022-08-14T07:24:26.170Z,156233.31
2022-08-14T07:26:58.622Z,156044.69
2022-08-14T07:29:28.936Z,156038.22
2022-08-14T07:31:57.912Z,156139.66
2022-08-14T07:34:31.845Z,156196.91
2022-08-14T07:37:04.308Z,156327.03
2022-08-14T07:39:34.579Z,156379.13
2022-08-14T07:42:02.728Z,156410.31
2022-08-14T07:44:35.491Z,156436.34
2022-08-14T07:47:05.402Z,156350.50
2022-08-14T07:49:33.694Z,156325.72
2022-08-14T07:52:02.152Z,156329.66
2022-08-14T07:54:31.148Z,156342.66
2022-08-14T07:56:59.928Z,156246.31
2022-08-14T07:59:42.544Z,156176.06
2022-08-14T08:02:18.956Z,156113.66
2022-08-14T08:04:50.389Z,156090.25
2022-08-14T08:07:21.672Z,156118.88
2022-08-14T08:09:53.250Z,156165.66
2022-08-14T08:12:26.117Z,156191.69
2022-08-14T08:15:02.124Z,156235.94
2022-08-14T08:17:38.990Z,156251.53
2022-08-14T08:20:16.785Z,156288.00
2022-08-14T08:22:47.905Z,156282.84
2022-08-14T08:25:17.995Z,156360.88
2022-08-14T08:27:55.817Z,156371.28
2022-08-14T08:30:24.749Z,156394.69
2022-08-14T08:32:55.185Z,156428.56
2022-08-14T08:35:25.626Z,156329.66
2022-08-14T08:38:14.132Z,156376.50
2022-08-14T08:40:57.428Z,156442.94
2022-08-14T08:43:29.376Z,156472.88
2022-08-14T08:46:00.305Z,156514.53
2022-08-14T08:48:36.476Z,156537.94
2022-08-14T08:51:08.109Z,156605.66
2022-08-14T08:53:37.463Z,156666.88
2022-08-14T08:56:05.463Z,156730.75
2022-08-14T08:58:32.872Z,156728.13
2022-08-14T09:01:01.694Z,156777.66
2022-08-14T09:03:32.296Z,156793.28
2022-08-14T09:06:03.552Z,156808.94
2022-08-14T09:08:33.404Z,156840.22
2022-08-14T09:11:20.996Z,156868.88
2022-08-14T09:13:50.484Z,156868.88
2022-08-14T09:16:21.078Z,156919.69
2022-08-14T09:18:53.097Z,156947.09
2022-08-14T09:21:24.430Z,157008.31
2022-08-14T09:24:28.784Z,157001.84
2022-08-14T09:26:42.847Z,157080.03
2022-08-14T09:29:11.809Z,156958.81
2022-08-14T09:31:53.423Z,156837.59
2022-08-14T09:34:38.202Z,156877.97
2022-08-14T09:37:35.619Z,156988.81
2022-08-14T09:40:10.220Z,157035.69
2022-08-14T09:42:55.903Z,157072.22
2022-08-14T09:45:40.210Z,157055.28
2022-08-14T09:48:30.196Z,156975.78
2022-08-14T09:54:19.623Z,157099.66
2022-08-14T09:56:30.456Z,157116.56
2022-08-14T09:59:01.129Z,157086.56
2022-08-14T10:01:37.556Z,157095.69
2022-08-14T10:04:32.842Z,157081.34
2022-08-14T10:07:04.182Z,157038.31
2022-08-14T10:09:34.637Z,157110.06
2022-08-14T10:12:04.543Z,157104.84
2022-08-14T10:14:36.922Z,157059.19
2022-08-14T10:17:07.129Z,157044.84
2022-08-14T10:19:37.162Z,157206.56
2022-08-14T10:23:13.512Z,157197.41
2022-08-14T10:24:59.832Z,157202.63
2022-08-14T10:27:28.864Z,157278.28
2022-08-14T10:30:00.733Z,157411.44
2022-08-14T10:32:40.361Z,157451.88
2022-08-14T10:35:17.691Z,157505.34
2022-08-14T10:37:53.482Z,157507.97
2022-08-14T10:43:23.796Z,157386.59
2022-08-14T10:46:21.353Z,157344.84
2022-08-14T10:48:57.793Z,157393.09
2022-08-14T10:51:26.346Z,157353.97
2022-08-14T10:53:57.028Z,157380.03
2022-08-14T10:56:33.966Z,157408.81
2022-08-14T10:59:02.574Z,157434.88
2022-08-14T11:01:32.433Z,157455.75
2022-08-14T11:04:06.421Z,157455.75
2022-08-14T11:06:34.447Z,157400.91
2022-08-14T11:09:13.340Z,157403.50
2022-08-14T11:11:44.622Z,157348.72
2022-08-14T11:14:11.999Z,157458.38
2022-08-14T11:16:41.386Z,157377.44
2022-08-14T11:19:24.380Z,157369.63
2022-08-14T11:21:56.334Z,157447.94
2022-08-14T11:24:53.995Z,157430.97
2022-08-14T11:27:20.077Z,157489.69
2022-08-14T11:29:52.839Z,157479.25
2022-08-14T11:32:29.185Z,157585.00
2022-08-14T11:34:57.544Z,157552.31
2022-08-14T11:37:33.912Z,157511.84
2022-08-14T11:40:16.451Z,157507.97
2022-08-14T11:43:08.153Z,157557.59
2022-08-14T11:45:37.399Z,157466.22
2022-08-14T11:49:02.970Z,157549.75
2022-08-14T11:51:13.908Z,157549.75
2022-08-14T11:53:43.573Z,157544.50
2022-08-14T11:56:14.652Z,157510.53
2022-08-14T11:58:51.979Z,157387.84
2022-08-14T12:01:28.510Z,157415.31
2022-08-14T12:03:59.039Z,157356.59
2022-08-14T12:06:38.615Z,157286.16
2022-08-14T12:09:08.505Z,157233.94
2022-08-14T12:11:47.615Z,157236.56
2022-08-14T12:14:29.332Z,157138.75
2022-08-14T12:17:04.074Z,157171.31
2022-08-14T12:19:45.417Z,157239.13
2022-08-14T12:22:13.062Z,157226.09
2022-08-14T12:24:57.009Z,157210.44
2022-08-14T12:27:37.872Z,157244.34
2022-08-14T12:30:10.327Z,157227.41
2022-08-14T12:32:41.673Z,157359.19
2022-08-14T12:35:10.697Z,157333.06
2022-08-14T12:37:40.108Z,157406.19
2022-08-14T12:40:20.635Z,157343.53
2022-08-14T12:42:53.765Z,157393.09
2022-08-14T12:45:32.723Z,157380.03
2022-08-14T12:48:21.161Z,157471.41
2022-08-14T12:50:51.635Z,157419.22
2022-08-14T12:53:20.799Z,157406.19
2022-08-14T12:56:18.593Z,157500.13
2022-08-14T12:58:54.430Z,157565.41
2022-08-14T13:01:24.301Z,157377.44
2022-08-14T13:04:07.159Z,157471.41
2022-08-14T13:06:36.037Z,157541.88
2022-08-14T13:09:04.852Z,157581.06
2022-08-14T13:11:44.662Z,157629.38
2022-08-14T13:14:17.333Z,157635.88
2022-08-14T13:16:50.218Z,157680.28
2022-08-14T13:19:19.858Z,157581.06
2022-08-14T13:22:05.159Z,157645.06
2022-08-14T13:24:39.656Z,157466.22
2022-08-14T13:27:10.036Z,157429.66
2022-08-14T13:29:46.644Z,157521.03
2022-08-14T13:32:15.405Z,157463.59
2022-08-14T13:34:45.502Z,157415.31
2022-08-14T13:37:15.160Z,157408.81
2022-08-14T13:39:56.455Z,157390.47
2022-08-14T13:42:26.276Z,157390.47
2022-08-14T13:44:56.938Z,157393.09
2022-08-14T13:47:29.577Z,157390.47
2022-08-14T13:50:04.620Z,157414.03
2022-08-14T13:52:52.287Z,157451.88
2022-08-14T13:55:23.525Z,157463.59
2022-08-14T13:58:04.127Z,157487.06
2022-08-14T14:00:53.008Z,157547.13
2022-08-14T14:03:25.930Z,157518.41
2022-08-14T14:05:58.834Z,157547.13
2022-08-14T14:08:46.658Z,157637.19
2022-08-14T14:11:15.918Z,157748.22
2022-08-14T14:13:45.115Z,157762.59
2022-08-14T14:16:26.079Z,157774.31
2022-08-14T14:19:09.039Z,157604.59
2022-08-14T14:21:39.005Z,157502.75
2022-08-14T14:24:15.116Z,157506.66
2022-08-14T14:26:46.804Z,157471.41
2022-08-14T14:29:14.785Z,157442.69
2022-08-14T14:31:49.004Z,157453.16
2022-08-14T14:34:29.719Z,157454.47
2022-08-14T14:37:02.470Z,157497.50
2022-08-14T14:39:31.398Z,157528.81
2022-08-14T14:42:08.085Z,157560.22
2022-08-14T14:44:40.636Z,157581.06
2022-08-14T14:47:12.039Z,157581.06
2022-08-14T14:49:51.252Z,157575.88
2022-08-14T14:52:27.697Z,157544.50
2022-08-14T14:54:57.316Z,157574.56
2022-08-14T14:57:35.788Z,157562.84
2022-08-14T15:00:06.383Z,157594.13
2022-08-14T15:02:41.249Z,157590.25
2022-08-14T15:05:11.176Z,157560.22
2022-08-14T15:07:40.120Z,157510.53
2022-08-14T15:10:28.279Z,157424.47
2022-08-14T15:12:58.195Z,157330.50
2022-08-14T15:15:28.063Z,157309.59
2022-08-14T15:17:57.766Z,157303.13
2022-08-14T15:20:29.874Z,157288.75
2022-08-14T15:23:00.635Z,157290.06
2022-08-14T15:25:31.657Z,157262.69
2022-08-14T15:27:59.147Z,157262.69
2022-08-14T15:30:32.274Z,157267.88
2022-08-14T15:33:01.610Z,157265.25
2022-08-14T15:35:34.299Z,157269.19
2022-08-14T15:38:07.806Z,157280.91
2022-08-14T15:40:37.604Z,157307.00
2022-08-14T15:43:10.784Z,157330.50
2022-08-14T15:45:41.710Z,157312.22
2022-08-14T15:48:22.299Z,157293.94
2022-08-14T15:50:51.695Z,157279.59
2022-08-14T15:53:22.221Z,157293.94
2022-08-14T15:55:50.132Z,157322.66
2022-08-14T15:58:20.793Z,157335.69
2022-08-14T16:01:06.816Z,157326.56
2022-08-14T16:03:40.892Z,157314.84
2022-08-14T16:06:15.490Z,157321.34
2022-08-14T16:08:46.126Z,157338.31
2022-08-14T16:11:14.896Z,157320.03
2022-08-14T16:13:45.075Z,157346.13
2022-08-14T16:16:34.940Z,157338.31
2022-08-14T16:19:10.451Z,157313.53
2022-08-14T16:21:41.026Z,157283.53
2022-08-14T16:24:31.083Z,157223.47
2022-08-14T16:27:00.936Z,157207.84
2022-08-14T16:29:29.954Z,157192.22
2022-08-14T16:31:59.077Z,157158.28
2022-08-14T16:34:45.470Z,157147.88
2022-08-14T16:37:18.451Z,157194.81
2022-08-14T16:39:48.701Z,157192.22
2022-08-14T16:42:39.087Z,157180.47
2022-08-14T16:45:04.867Z,157226.09
2022-08-14T16:47:35.136Z,157282.22
2022-08-14T16:50:08.936Z,157275.72
2022-08-14T16:52:44.673Z,157284.84
2022-08-14T16:55:22.491Z,157291.38
2022-08-14T16:57:59.185Z,157326.56
2022-08-14T17:00:29.159Z,157352.66
2022-08-14T17:03:03.885Z,157330.50
2022-08-14T17:05:37.184Z,157335.69
2022-08-14T17:08:42.836Z,157351.34
2022-08-14T17:11:09.902Z,157356.59
2022-08-14T17:13:58.489Z,157367.00
2022-08-14T17:16:26.596Z,157337.00
2022-08-14T17:19:00.497Z,157295.25
2022-08-14T17:21:32.661Z,157233.94
2022-08-14T17:26:55.558Z,157129.59
2022-08-14T17:29:29.443Z,157124.41
2022-08-14T17:32:02.012Z,157095.69
2022-08-14T17:34:46.267Z,157035.69
2022-08-14T17:37:27.783Z,157020.03
2022-08-14T17:40:15.644Z,156980.94
2022-08-14T17:42:51.144Z,156983.56
2022-08-14T17:45:27.042Z,156935.31
2022-08-14T17:47:59.070Z,156958.81
2022-08-14T17:50:59.401Z,156934.00
2022-08-14T17:53:30.446Z,156910.53
2022-08-14T17:56:02.381Z,156884.47
2022-08-14T17:58:38.549Z,156845.38
2022-08-14T18:01:14.143Z,156892.31
2022-08-14T18:03:50.338Z,156851.94
2022-08-14T18:06:39.059Z,156834.97
2022-08-14T18:09:25.051Z,156793.28
2022-08-14T18:11:55.259Z,156772.41
2022-08-14T18:14:33.297Z,156756.78
2022-08-14T18:17:11.464Z,156720.28
2022-08-14T18:19:41.609Z,156756.78
2022-08-14T18:22:23.948Z,156674.72
2022-08-14T18:25:02.151Z,156657.78
2022-08-14T18:27:38.394Z,156652.56
2022-08-14T18:30:31.691Z,156644.75
2022-08-14T18:33:00.009Z,156583.50
2022-08-14T18:35:46.249Z,156595.25
2022-08-14T18:38:43.055Z,156536.66
2022-08-14T18:41:37.033Z,156497.59
2022-08-14T18:44:10.139Z,156472.88
2022-08-14T18:47:08.520Z,156449.41
2022-08-14T18:50:00.929Z,156452.03
2022-08-14T18:52:42.477Z,156418.16
2022-08-14T18:55:53.187Z,156353.06
2022-08-14T18:58:29.542Z,156303.63
2022-08-14T19:01:04.603Z,156285.41
2022-08-14T19:03:56.096Z,156241.16
2022-08-14T19:06:43.559Z,156221.63
2022-08-14T19:09:51.567Z,156181.28
2022-08-14T19:12:58.178Z,156118.88
2022-08-14T19:15:31.308Z,156099.34
2022-08-14T19:18:14.403Z,156074.59
2022-08-14T19:20:49.013Z,156074.59
2022-08-14T19:23:42.432Z,156055.06
2022-08-14T19:26:36.509Z,156033.00
2022-08-14T19:29:26.593Z,156027.78
2022-08-14T19:32:39.735Z,156017.38
2022-08-14T19:35:49.804Z,156014.78
2022-08-14T19:38:57.233Z,155986.16
2022-08-14T19:41:30.260Z,155986.16
2022-08-14T19:44:10.352Z,155965.38
2022-08-14T19:47:01.339Z,155949.78
2022-08-14T19:50:24.397Z,155942.00
2022-08-14T19:52:23.302Z,155962.78
2022-08-14T19:54:51.881Z,155952.38
2022-08-14T19:57:22.003Z,155948.47
2022-08-14T20:00:00.221Z,155944.56
2022-08-14T20:02:30.069Z,155910.78
2022-08-14T20:04:59.194Z,155886.06
2022-08-14T20:08:00.438Z,155853.53
2022-08-14T20:11:08.412Z,155866.53
2022-08-14T20:13:25.254Z,155873.06
2022-08-14T20:16:02.679Z,155870.44
2022-08-14T20:18:49.479Z,155887.34
2022-08-14T20:21:18.292Z,155878.22
2022-08-14T20:23:48.264Z,155867.84
2022-08-14T20:26:30.817Z,155857.44
2022-08-14T20:29:04.553Z,155853.53
2022-08-14T20:31:36.481Z,155815.88
2022-08-14T20:34:08.033Z,155782.06
2022-08-14T20:37:01.678Z,155757.38
2022-08-14T20:39:34.621Z,155726.22
2022-08-14T20:42:24.860Z,155705.38
2022-08-14T21:02:29.449Z,155643.03
2022-08-14T21:05:01.003Z,155628.75
2022-08-14T21:07:37.376Z,155601.47
2022-08-14T21:10:36.714Z,155596.25
2022-08-14T21:13:26.521Z,155609.22
2022-08-14T21:15:57.687Z,155575.50
2022-08-14T21:18:28.706Z,155602.75
2022-08-14T21:20:57.779Z,155575.50
2022-08-14T21:23:27.304Z,155567.69
2022-08-14T21:26:00.954Z,155535.25
2022-08-14T21:28:35.581Z,155519.66
2022-08-14T21:31:03.714Z,155515.72
2022-08-14T21:33:33.834Z,155541.69
2022-08-14T21:36:07.647Z,155528.72
2022-08-14T21:38:36.461Z,155466.38
2022-08-14T21:41:41.377Z,155437.78
2022-08-14T21:44:05.204Z,155458.53
2022-08-14T21:46:47.875Z,155502.69
2022-08-14T21:49:21.028Z,155476.75
2022-08-14T21:51:57.150Z,155461.16
2022-08-14T21:54:32.506Z,155450.78
2022-08-14T21:57:56.261Z,155450.78
2022-08-14T22:00:30.289Z,155411.84
2022-08-14T22:03:05.138Z,155394.94
2022-08-14T22:05:33.951Z,155363.78
2022-08-14T22:08:04.285Z,155340.44
2022-08-14T22:10:34.740Z,155336.53
2022-08-14T22:13:02.501Z,155323.56
2022-08-14T22:15:33.414Z,151531.34
2022-08-14T22:18:04.095Z,142231.41
2022-08-14T22:20:36.262Z,141196.44
2022-08-14T22:23:08.478Z,143666.19
2022-08-14T22:25:41.170Z,143317.88
2022-08-14T22:28:11.896Z,142949.25
2022-08-14T22:30:41.687Z,142942.13
2022-08-14T22:33:10.129Z,143287.94
2022-08-14T22:35:43.521Z,147880.81
2022-08-14T22:38:34.880Z,152901.22
2022-08-14T22:41:25.839Z,143231.72
2022-08-14T22:43:50.953Z,129141.94
2022-08-14T22:46:20.242Z,117933.41
2022-08-14T22:48:49.550Z,116571.75
2022-08-14T22:51:21.144Z,116914.84
2022-08-14T22:53:52.495Z,116584.41
2022-08-14T22:56:22.104Z,125002.88
2022-08-14T22:58:57.467Z,123926.31
2022-08-14T23:01:57.131Z,128497.44
2022-08-14T23:04:35.229Z,128494.25
2022-08-14T23:07:22.909Z,134802.09
2022-08-14T23:09:56.797Z,131988.53
2022-08-14T23:12:28.506Z,131283.09
2022-08-14T23:14:57.416Z,127054.25
2022-08-14T23:17:26.441Z,128806.84
2022-08-14T23:19:56.380Z,130976.34
2022-08-14T23:22:26.329Z,133730.63
2022-08-14T23:24:57.937Z,128798.25
2022-08-14T23:27:32.131Z,126343.75
2022-08-14T23:30:31.555Z,131618.19
2022-08-14T23:33:02.128Z,128763.81
2022-08-14T23:35:33.212Z,123514.69
2022-08-14T23:38:03.332Z,122148.44
2022-08-14T23:40:31.439Z,130886.69
2022-08-14T23:43:04.667Z,134029.88
2022-08-14T23:45:36.493Z,125605.22
2022-08-14T23:48:04.999Z,120672.03
2022-08-14T23:50:40.008Z,121379.53
2022-08-14T23:53:28.528Z,122782.81
2022-08-14T23:56:08.275Z,119631.84
2022-08-14T23:58:37.022Z,129788.09
